Homewood, Illinois
Current Conditions -  °F | °C
As of 1:15 AM on Friday 19 Dec 2014 (Local Time) from KIGQ Reporting Station
Overcast Overcast  
Wind Chill: 20°   Ceiling: 1900
Heat Index: 28°   Visibility: 10mi
Dew Point: 22°   Wind: 7mph
Humidity: 80%   Direction: 270°W
Pressure: 30.26"   Gusts: NA
Location:  41.56°N, 87.66°W
Report Text: KIGQ 190715Z AUTO 27006KT 10SM OVC019 M02/M05 A3026 RMK AO2 T10241055
Loading
Personal Weather Stations






























Interactive Weather Map New forecast layout! Learn more

10-Day Weather Forecast

Advertisements
Track Severe Weather on mobile